Time;durP1;ratioP1;P1;durP2;ratioP2;P2;SDS_P1;SDS_P2;PMS_P1;PMS_P2;Temp;Humidity;BMP_temperature;BMP_pressure;BME280_temperature;BME280_humidity;BME280_pressure;Samples;Min_cycle;Max_cycle;Signal;HPM_P1;HPM_P2
2022/01/17 00:02:05;;;;;;;25.92;9.50;;;;;;;;;;5046277;28;20033;-78
2022/01/17 00:04:31;;;;;;;22.63;11.02;;;;;;;;;;5048552;28;20048;-78
2022/01/17 00:06:57;;;;;;;22.65;9.73;;;;;;;;;;5048208;28;20048;-78
2022/01/17 00:09:23;;;;;;;27.95;10.75;;;;;;;;;;5048174;28;20032;-79
2022/01/17 00:11:50;;;;;;;23.10;9.82;;;;;;;;;;5057556;28;20082;-78
2022/01/17 00:14:22;;;;;;;22.65;11.30;;;;;;;;;;5060101;28;20033;-78
2022/01/17 00:17:03;;;;;;;27.23;10.18;;;;;;;;;;5047721;28;20024;-78
2022/01/17 00:19:37;;;;;;;25.85;11.02;;;;;;;;;;5049013;28;20037;-79
2022/01/17 00:22:03;;;;;;;26.63;11.07;;;;;;;;;;5047781;28;20785;-78
2022/01/17 00:24:29;;;;;;;27.80;11.40;;;;;;;;;;5049472;28;20036;-78
2022/01/17 00:26:55;;;;;;;30.05;11.55;;;;;;;;;;5050108;28;20091;-78
2022/01/17 00:29:21;;;;;;;23.85;11.30;;;;;;;;;;5048206;28;20130;-78
2022/01/17 00:31:47;;;;;;;33.70;12.18;;;;;;;;;;5048922;28;20028;-79
2022/01/17 00:34:13;;;;;;;27.83;10.93;;;;;;;;;;5045598;28;20033;-77
2022/01/17 00:36:39;;;;;;;22.35;9.40;;;;;;;;;;5047104;28;20534;-78
2022/01/17 00:39:05;;;;;;;25.02;10.55;;;;;;;;;;5045710;28;20058;-78
2022/01/17 00:41:31;;;;;;;26.30;11.90;;;;;;;;;;5042984;28;20028;-78
2022/01/17 00:43:58;;;;;;;29.35;11.30;;;;;;;;;;5047749;28;20040;-78
2022/01/17 00:46:24;;;;;;;22.27;10.00;;;;;;;;;;5050561;28;20027;-78
2022/01/17 00:48:51;;;;;;;25.58;10.57;;;;;;;;;;5047525;28;20029;-77
2022/01/17 00:51:17;;;;;;;26.35;9.75;;;;;;;;;;5049549;28;20021;-77
2022/01/17 00:53:43;;;;;;;21.95;9.35;;;;;;;;;;5046418;28;20117;-78
2022/01/17 00:56:09;;;;;;;28.55;8.88;;;;;;;;;;5050539;28;20032;-77
2022/01/17 00:58:35;;;;;;;35.25;12.50;;;;;;;;;;5049624;28;20028;-78
2022/01/17 01:01:01;;;;;;;25.15;9.68;;;;;;;;;;5044981;28;20025;-77
2022/01/17 01:03:27;;;;;;;23.17;10.35;;;;;;;;;;5047325;28;20033;-77
2022/01/17 01:05:53;;;;;;;27.40;10.30;;;;;;;;;;5049849;28;20611;-77
2022/01/17 01:08:19;;;;;;;23.40;10.27;;;;;;;;;;5047607;28;20116;-78
2022/01/17 01:10:45;;;;;;;16.55;9.13;;;;;;;;;;5049874;28;20116;-77
2022/01/17 01:13:11;;;;;;;31.20;12.13;;;;;;;;;;5051313;28;20115;-78
2022/01/17 01:15:48;;;;;;;30.80;10.52;;;;;;;;;;5037046;28;20025;-78
2022/01/17 01:18:17;;;;;;;22.60;10.85;;;;;;;;;;5050845;28;20056;-77
2022/01/17 01:21:14;;;;;;;34.83;12.73;;;;;;;;;;5050803;28;20099;-77
2022/01/17 01:29:08;;;;;;;21.38;10.80;;;;;;;;;;5047077;28;20154;-77
2022/01/17 01:34:40;;;;;;;25.52;10.48;;;;;;;;;;5023230;28;20148;-77
2022/01/17 01:37:06;;;;;;;24.38;12.45;;;;;;;;;;5051926;28;20370;-77
2022/01/17 01:39:34;;;;;;;22.02;8.88;;;;;;;;;;5050226;28;20039;-77
2022/01/17 01:42:00;;;;;;;26.35;11.95;;;;;;;;;;5051405;28;20036;-77
2022/01/17 01:44:27;;;;;;;25.63;10.07;;;;;;;;;;5048558;28;20036;-78
2022/01/17 01:46:53;;;;;;;30.33;11.95;;;;;;;;;;5049006;28;20132;-77
2022/01/17 01:49:20;;;;;;;27.95;11.45;;;;;;;;;;5045709;28;20046;-77
2022/01/17 01:51:47;;;;;;;23.38;9.68;;;;;;;;;;5050018;28;20582;-78
2022/01/17 01:54:13;;;;;;;27.13;10.88;;;;;;;;;;5054447;28;20028;-77
2022/01/17 01:56:42;;;;;;;38.03;12.73;;;;;;;;;;5052915;28;20029;-78
2022/01/17 01:59:08;;;;;;;32.92;12.57;;;;;;;;;;5049803;28;20033;-77
2022/01/17 02:01:34;;;;;;;23.85;10.77;;;;;;;;;;5051438;28;20070;-78
2022/01/17 02:04:00;;;;;;;28.27;10.85;;;;;;;;;;5055268;28;20048;-78
2022/01/17 02:06:26;;;;;;;19.50;10.63;;;;;;;;;;5048665;28;20464;-78
2022/01/17 02:08:52;;;;;;;25.27;9.98;;;;;;;;;;5047496;28;20032;-78
2022/01/17 02:11:18;;;;;;;25.60;9.45;;;;;;;;;;5049027;28;20020;-77
2022/01/17 02:13:46;;;;;;;32.38;13.25;;;;;;;;;;5046057;28;20055;-79
2022/01/17 02:16:14;;;;;;;23.08;10.23;;;;;;;;;;5048226;28;20032;-77
2022/01/17 02:18:44;;;;;;;31.73;11.20;;;;;;;;;;5049458;28;21005;-77
2022/01/17 02:23:44;;;;;;;33.22;11.27;;;;;;;;;;5050482;28;20622;-77
2022/01/17 02:26:11;;;;;;;29.48;10.77;;;;;;;;;;5048694;28;20494;-77
2022/01/17 02:28:37;;;;;;;32.33;15.05;;;;;;;;;;5047538;28;20032;-78
2022/01/17 02:31:07;;;;;;;28.75;10.80;;;;;;;;;;5049261;28;20048;-77
2022/01/17 02:33:33;;;;;;;28.08;12.63;;;;;;;;;;5049866;28;20078;-77
2022/01/17 02:36:00;;;;;;;22.95;9.77;;;;;;;;;;5048428;28;21208;-78
2022/01/17 02:38:26;;;;;;;34.53;10.48;;;;;;;;;;5063368;28;20028;-77
2022/01/17 02:40:52;;;;;;;25.85;10.02;;;;;;;;;;5050836;28;20033;-77
2022/01/17 02:43:21;;;;;;;29.98;13.93;;;;;;;;;;5046816;28;20115;-78
2022/01/17 02:48:20;;;;;;;26.83;10.80;;;;;;;;;;5048230;28;20554;-78
2022/01/17 02:50:46;;;;;;;37.90;11.55;;;;;;;;;;5052160;28;20631;-77
2022/01/17 02:53:13;;;;;;;23.42;9.98;;;;;;;;;;5049587;28;20032;-78
2022/01/17 02:55:40;;;;;;;28.60;9.93;;;;;;;;;;5049314;28;20068;-77
2022/01/17 02:58:06;;;;;;;28.42;10.30;;;;;;;;;;5050226;28;20078;-78
2022/01/17 03:00:33;;;;;;;35.47;11.27;;;;;;;;;;5047819;28;20664;-78
2022/01/17 03:02:59;;;;;;;31.27;10.85;;;;;;;;;;5050257;28;20052;-77
2022/01/17 03:05:25;;;;;;;27.83;9.73;;;;;;;;;;5055662;28;20030;-77
2022/01/17 03:07:51;;;;;;;31.10;10.63;;;;;;;;;;5059994;28;20424;-77
2022/01/17 03:13:07;;;;;;;29.77;11.55;;;;;;;;;;5055218;28;20076;-77
2022/01/17 03:15:33;;;;;;;33.22;10.23;;;;;;;;;;5045957;28;20543;-77
2022/01/17 03:18:00;;;;;;;28.20;10.55;;;;;;;;;;5046977;28;20119;-78
2022/01/17 03:20:26;;;;;;;29.98;11.07;;;;;;;;;;5046795;28;20063;-77
2022/01/17 03:22:52;;;;;;;23.80;10.40;;;;;;;;;;5044803;28;20029;-78
2022/01/17 03:25:18;;;;;;;31.13;10.55;;;;;;;;;;5045079;28;20123;-77
2022/01/17 03:27:44;;;;;;;27.40;9.90;;;;;;;;;;5043566;28;20020;-78
2022/01/17 03:30:10;;;;;;;34.40;11.32;;;;;;;;;;5045596;28;20602;-77
2022/01/17 03:32:36;;;;;;;33.78;12.15;;;;;;;;;;5046147;28;20033;-78
2022/01/17 03:35:02;;;;;;;27.98;10.38;;;;;;;;;;5045047;28;20190;-77
2022/01/17 03:37:28;;;;;;;36.50;11.15;;;;;;;;;;5045275;28;20033;-77
2022/01/17 03:39:54;;;;;;;33.05;11.30;;;;;;;;;;5049696;28;20071;-78
2022/01/17 03:42:21;;;;;;;32.53;11.95;;;;;;;;;;5061902;28;20051;-78
2022/01/17 03:44:47;;;;;;;36.45;11.25;;;;;;;;;;5048946;28;20041;-78
2022/01/17 03:47:13;;;;;;;33.05;12.02;;;;;;;;;;5048724;28;20032;-77
2022/01/17 03:49:39;;;;;;;25.52;8.73;;;;;;;;;;5052973;28;20052;-77
2022/01/17 03:52:06;;;;;;;24.58;8.77;;;;;;;;;;5051987;28;20025;-77
2022/01/17 03:54:32;;;;;;;20.67;9.23;;;;;;;;;;5046302;28;20029;-77
2022/01/17 03:56:59;;;;;;;34.55;11.30;;;;;;;;;;5050375;28;20511;-77
2022/01/17 03:59:26;;;;;;;41.70;11.18;;;;;;;;;;5046015;28;20056;-77
2022/01/17 04:01:52;;;;;;;31.88;11.60;;;;;;;;;;5038030;28;20037;-78
2022/01/17 04:04:18;;;;;;;24.05;10.85;;;;;;;;;;5050577;28;20574;-77
2022/01/17 04:06:44;;;;;;;39.58;11.90;;;;;;;;;;5044983;28;20061;-77
2022/01/17 04:09:11;;;;;;;28.45;11.75;;;;;;;;;;5044025;28;20060;-77
2022/01/17 04:11:37;;;;;;;26.20;11.20;;;;;;;;;;5047090;28;20037;-77
2022/01/17 04:14:05;;;;;;;25.83;10.25;;;;;;;;;;5045714;28;20028;-78
2022/01/17 04:16:31;;;;;;;24.08;9.68;;;;;;;;;;5047333;28;20109;-78
2022/01/17 04:18:57;;;;;;;27.83;11.35;;;;;;;;;;5051292;28;20088;-77
2022/01/17 04:21:25;;;;;;;24.15;11.07;;;;;;;;;;5045382;28;20017;-77
2022/01/17 04:23:51;;;;;;;28.20;8.63;;;;;;;;;;5053635;28;20671;-78
2022/01/17 04:26:17;;;;;;;25.73;8.43;;;;;;;;;;5047567;28;20029;-77
2022/01/17 04:28:43;;;;;;;29.75;8.88;;;;;;;;;;5046612;28;20513;-78
2022/01/17 04:31:09;;;;;;;28.45;10.50;;;;;;;;;;5045264;28;20425;-77
2022/01/17 04:33:35;;;;;;;22.40;7.60;;;;;;;;;;5048555;28;20033;-77
2022/01/17 04:36:06;;;;;;;23.65;8.00;;;;;;;;;;5042422;28;21218;-78
2022/01/17 04:38:32;;;;;;;24.60;8.38;;;;;;;;;;5049491;28;20048;-77
2022/01/17 04:41:04;;;;;;;32.40;11.00;;;;;;;;;;5036930;28;20024;-77
2022/01/17 04:46:03;;;;;;;31.00;10.52;;;;;;;;;;5047244;28;20031;-78
2022/01/17 04:48:30;;;;;;;22.88;8.05;;;;;;;;;;5047500;28;20063;-77
2022/01/17 04:50:56;;;;;;;23.45;9.65;;;;;;;;;;5043761;28;20516;-78
2022/01/17 04:53:22;;;;;;;27.58;11.13;;;;;;;;;;5047037;28;20036;-77
2022/01/17 04:55:49;;;;;;;20.80;8.55;;;;;;;;;;5048693;28;20031;-77
2022/01/17 04:58:15;;;;;;;22.63;9.48;;;;;;;;;;5049404;28;20111;-77
2022/01/17 05:00:46;;;;;;;31.15;9.95;;;;;;;;;;5045527;28;20028;-78
2022/01/17 05:03:18;;;;;;;23.15;9.45;;;;;;;;;;5047808;28;20049;-77
2022/01/17 05:05:45;;;;;;;29.20;9.80;;;;;;;;;;5050390;28;20143;-77
2022/01/17 05:08:11;;;;;;;24.27;10.07;;;;;;;;;;5048297;28;20048;-78
2022/01/17 05:10:37;;;;;;;30.77;9.60;;;;;;;;;;5044708;28;20589;-77
2022/01/17 05:13:03;;;;;;;31.10;10.88;;;;;;;;;;5048665;28;20385;-77
2022/01/17 05:15:36;;;;;;;22.52;8.55;;;;;;;;;;5048610;28;20386;-77
2022/01/17 05:20:33;;;;;;;24.15;9.27;;;;;;;;;;5036165;28;20051;-78
2022/01/17 05:22:59;;;;;;;30.90;10.00;;;;;;;;;;5049937;28;20032;-78
2022/01/17 05:25:25;;;;;;;40.10;10.60;;;;;;;;;;5051111;28;20421;-78
2022/01/17 05:27:51;;;;;;;25.55;8.63;;;;;;;;;;5061463;28;20055;-78
2022/01/17 05:30:18;;;;;;;26.25;8.52;;;;;;;;;;5044901;28;20028;-78
2022/01/17 05:32:45;;;;;;;18.67;7.60;;;;;;;;;;5047899;28;20470;-77
2022/01/17 05:35:12;;;;;;;28.08;8.48;;;;;;;;;;5048453;28;20056;-77
2022/01/17 05:37:39;;;;;;;25.10;9.43;;;;;;;;;;5036175;28;20024;-77
2022/01/17 05:40:06;;;;;;;27.88;10.70;;;;;;;;;;5042050;28;20031;-78
2022/01/17 05:42:32;;;;;;;23.77;9.93;;;;;;;;;;5051589;28;20024;-78
2022/01/17 05:44:58;;;;;;;30.98;11.00;;;;;;;;;;5043058;28;20050;-78
2022/01/17 05:47:24;;;;;;;31.13;10.88;;;;;;;;;;5044189;28;20029;-78
2022/01/17 05:49:50;;;;;;;26.65;11.02;;;;;;;;;;5045409;28;20056;-79
2022/01/17 05:52:16;;;;;;;32.65;10.00;;;;;;;;;;5047262;28;20807;-79
2022/01/17 05:54:42;;;;;;;19.50;9.88;;;;;;;;;;5049226;28;20195;-80
2022/01/17 05:57:08;;;;;;;26.92;9.85;;;;;;;;;;5063494;28;20112;-78
2022/01/17 05:59:34;;;;;;;34.10;9.38;;;;;;;;;;5050645;28;20036;-78
2022/01/17 06:02:01;;;;;;;20.90;8.45;;;;;;;;;;5045072;28;20074;-78
2022/01/17 06:04:27;;;;;;;23.60;8.65;;;;;;;;;;5041314;28;22141;-78
2022/01/17 06:06:53;;;;;;;21.20;9.40;;;;;;;;;;5047642;28;20500;-78
2022/01/17 06:09:19;;;;;;;26.52;9.40;;;;;;;;;;5050432;28;20039;-78
2022/01/17 06:11:45;;;;;;;30.42;9.30;;;;;;;;;;5052334;28;20036;-78
2022/01/17 06:14:16;;;;;;;21.90;10.35;;;;;;;;;;5041519;28;20519;-78
2022/01/17 06:16:42;;;;;;;23.85;8.35;;;;;;;;;;5038590;28;20028;-79
2022/01/17 06:19:08;;;;;;;22.08;9.85;;;;;;;;;;5038766;28;20072;-77
2022/01/17 06:21:34;;;;;;;25.70;8.80;;;;;;;;;;5051197;28;20056;-78
2022/01/17 06:24:02;;;;;;;23.40;8.98;;;;;;;;;;5042478;28;20048;-77
2022/01/17 06:26:28;;;;;;;21.27;10.45;;;;;;;;;;5066407;28;20500;-81
2022/01/17 06:28:54;;;;;;;22.73;9.40;;;;;;;;;;5049951;28;20036;-78
2022/01/17 06:31:20;;;;;;;20.50;8.80;;;;;;;;;;5053705;28;20078;-77
2022/01/17 06:33:46;;;;;;;23.60;8.23;;;;;;;;;;5052836;28;20520;-78
2022/01/17 06:36:12;;;;;;;29.15;9.23;;;;;;;;;;5051617;28;20080;-77
2022/01/17 06:38:38;;;;;;;21.17;8.55;;;;;;;;;;5049085;28;20051;-78
2022/01/17 06:41:04;;;;;;;19.65;6.88;;;;;;;;;;5051958;28;20116;-78
2022/01/17 06:43:30;;;;;;;21.90;7.90;;;;;;;;;;5052448;28;20520;-79
2022/01/17 06:45:56;;;;;;;22.65;8.10;;;;;;;;;;5049165;28;20082;-78
2022/01/17 06:48:22;;;;;;;20.10;8.55;;;;;;;;;;5056968;28;20536;-78
2022/01/17 06:50:48;;;;;;;18.65;7.55;;;;;;;;;;5052104;28;20059;-78
2022/01/17 06:53:14;;;;;;;20.88;8.65;;;;;;;;;;5050165;28;20210;-80
2022/01/17 06:55:40;;;;;;;17.58;7.10;;;;;;;;;;5056897;28;20075;-77
2022/01/17 06:58:06;;;;;;;26.33;8.68;;;;;;;;;;5051021;28;20028;-78
2022/01/17 07:00:32;;;;;;;22.42;7.70;;;;;;;;;;5047905;28;20703;-78
2022/01/17 07:02:58;;;;;;;24.27;8.57;;;;;;;;;;5049740;28;20029;-78
2022/01/17 07:05:24;;;;;;;15.63;6.97;;;;;;;;;;5048409;28;20032;-78
2022/01/17 07:07:50;;;;;;;27.77;8.10;;;;;;;;;;5052049;28;20409;-79
2022/01/17 07:10:16;;;;;;;20.92;8.00;;;;;;;;;;5047105;28;20036;-77
2022/01/17 07:12:42;;;;;;;18.60;7.10;;;;;;;;;;5052390;28;20024;-78
2022/01/17 07:15:08;;;;;;;19.65;7.80;;;;;;;;;;5054153;28;20025;-78
2022/01/17 07:17:35;;;;;;;19.20;8.63;;;;;;;;;;5054988;28;20075;-78
2022/01/17 07:20:01;;;;;;;15.90;8.00;;;;;;;;;;5051879;28;20024;-78
2022/01/17 07:22:27;;;;;;;19.92;8.63;;;;;;;;;;5053414;28;20116;-78
2022/01/17 07:24:56;;;;;;;23.13;8.38;;;;;;;;;;5057952;28;20108;-78
2022/01/17 07:27:24;;;;;;;18.20;7.28;;;;;;;;;;5072054;28;20104;-77
2022/01/17 07:29:50;;;;;;;19.80;6.60;;;;;;;;;;5056620;28;20041;-78
2022/01/17 07:32:16;;;;;;;19.35;6.95;;;;;;;;;;5054184;28;20029;-77
2022/01/17 07:34:42;;;;;;;18.27;5.88;;;;;;;;;;5052970;28;20143;-77
2022/01/17 07:37:08;;;;;;;17.05;7.05;;;;;;;;;;5051059;28;20024;-77
2022/01/17 07:39:34;;;;;;;15.40;7.88;;;;;;;;;;5050553;28;20531;-77
2022/01/17 07:41:59;;;;;;;16.13;6.50;;;;;;;;;;5051248;28;20606;-77
2022/01/17 07:44:27;;;;;;;21.23;7.78;;;;;;;;;;5051896;28;20037;-79
2022/01/17 07:46:55;;;;;;;16.17;5.25;;;;;;;;;;5056210;28;20029;-78
2022/01/17 07:49:22;;;;;;;16.83;5.75;;;;;;;;;;5054108;28;20036;-79
2022/01/17 07:51:50;;;;;;;12.57;6.30;;;;;;;;;;5052283;28;20170;-77
2022/01/17 07:54:18;;;;;;;20.13;8.23;;;;;;;;;;5055680;28;20040;-77
2022/01/17 07:56:45;;;;;;;20.38;8.20;;;;;;;;;;5069789;28;20024;-77
2022/01/17 07:59:12;;;;;;;18.55;6.93;;;;;;;;;;5059380;28;20542;-78
2022/01/17 08:01:38;;;;;;;16.42;7.30;;;;;;;;;;5052438;28;20032;-79
2022/01/17 08:04:05;;;;;;;19.83;7.65;;;;;;;;;;5054102;28;20036;-79
2022/01/17 08:06:32;;;;;;;19.30;8.25;;;;;;;;;;5055929;28;20033;-78
2022/01/17 08:08:59;;;;;;;17.05;7.13;;;;;;;;;;5055737;28;20589;-78
2022/01/17 08:11:25;;;;;;;22.65;9.07;;;;;;;;;;5058668;28;20089;-79
2022/01/17 08:13:51;;;;;;;11.45;6.07;;;;;;;;;;5056746;28;20035;-79
2022/01/17 08:16:16;;;;;;;15.55;6.00;;;;;;;;;;5055215;28;20119;-79
2022/01/17 08:18:42;;;;;;;13.98;6.55;;;;;;;;;;5054046;28;20451;-78
2022/01/17 08:21:08;;;;;;;18.73;7.90;;;;;;;;;;5063978;28;20029;-78
2022/01/17 08:23:36;;;;;;;15.75;6.93;;;;;;;;;;5064301;28;20041;-78
2022/01/17 08:26:02;;;;;;;21.38;8.57;;;;;;;;;;5065499;28;21294;-78
2022/01/17 08:28:28;;;;;;;24.52;7.85;;;;;;;;;;5074085;28;20040;-77
2022/01/17 08:30:54;;;;;;;20.80;7.10;;;;;;;;;;5053226;28;20654;-78
2022/01/17 08:33:21;;;;;;;19.20;8.13;;;;;;;;;;5052674;28;20035;-78
2022/01/17 08:35:48;;;;;;;20.00;7.35;;;;;;;;;;5051905;28;20055;-79
2022/01/17 08:38:14;;;;;;;18.17;6.57;;;;;;;;;;5049603;28;20040;-79
2022/01/17 08:40:39;;;;;;;18.98;7.75;;;;;;;;;;5048384;28;20060;-78
2022/01/17 08:43:07;;;;;;;19.70;6.15;;;;;;;;;;5051159;28;20044;-78
2022/01/17 08:45:33;;;;;;;16.58;7.40;;;;;;;;;;5052552;28;20056;-78
2022/01/17 08:47:59;;;;;;;19.42;6.93;;;;;;;;;;5052806;28;20025;-78
2022/01/17 08:50:25;;;;;;;13.50;7.13;;;;;;;;;;5052478;28;20037;-78
2022/01/17 08:52:51;;;;;;;19.30;6.95;;;;;;;;;;5052463;28;20467;-78
2022/01/17 08:55:18;;;;;;;10.55;5.93;;;;;;;;;;5050305;28;20028;-79
2022/01/17 08:57:44;;;;;;;22.05;6.88;;;;;;;;;;5053347;28;20557;-78
2022/01/17 09:00:11;;;;;;;16.15;5.57;;;;;;;;;;5050907;28;20032;-78
2022/01/17 09:02:37;;;;;;;17.98;6.97;;;;;;;;;;5054766;28;20078;-78
2022/01/17 09:05:03;;;;;;;19.38;8.27;;;;;;;;;;5050008;28;20131;-77
2022/01/17 09:07:29;;;;;;;22.25;7.95;;;;;;;;;;5050423;28;20039;-77
2022/01/17 09:09:55;;;;;;;22.60;7.30;;;;;;;;;;5050015;28;20029;-77
2022/01/17 09:12:21;;;;;;;20.25;7.88;;;;;;;;;;5050312;28;20023;-77
2022/01/17 09:14:47;;;;;;;20.02;8.70;;;;;;;;;;5052081;28;20040;-77
2022/01/17 09:17:13;;;;;;;14.82;6.82;;;;;;;;;;5050031;28;20060;-77
2022/01/17 09:19:40;;;;;;;22.75;7.97;;;;;;;;;;5048245;28;20037;-78
2022/01/17 09:22:07;;;;;;;18.92;6.95;;;;;;;;;;5044759;28;20028;-77
2022/01/17 09:24:33;;;;;;;19.17;7.22;;;;;;;;;;5050898;28;20136;-78
2022/01/17 09:26:59;;;;;;;16.98;6.85;;;;;;;;;;5072551;28;20025;-78
2022/01/17 09:29:25;;;;;;;18.63;6.85;;;;;;;;;;5058479;28;20044;-79
2022/01/17 09:31:51;;;;;;;18.00;6.88;;;;;;;;;;5048982;28;20016;-77
2022/01/17 09:34:17;;;;;;;13.45;5.65;;;;;;;;;;5053200;28;20036;-79
2022/01/17 09:36:43;;;;;;;13.13;7.35;;;;;;;;;;5050051;28;20033;-78
2022/01/17 09:39:09;;;;;;;15.02;7.35;;;;;;;;;;5052459;28;20037;-78
2022/01/17 09:41:35;;;;;;;15.95;6.45;;;;;;;;;;5051972;28;20219;-78
2022/01/17 09:44:02;;;;;;;15.35;6.93;;;;;;;;;;5051163;28;20041;-79
2022/01/17 09:46:34;;;;;;;13.75;6.63;;;;;;;;;;5050472;28;20028;-78
2022/01/17 09:49:12;;;;;;;25.50;7.10;;;;;;;;;;5048919;28;21661;-78
2022/01/17 09:52:03;;;;;;;12.55;6.43;;;;;;;;;;5050209;28;20028;-78
2022/01/17 09:54:29;;;;;;;14.35;5.68;;;;;;;;;;5052618;28;20048;-79
2022/01/17 09:56:56;;;;;;;12.32;5.82;;;;;;;;;;5043271;28;21935;-78
2022/01/17 09:59:22;;;;;;;16.25;5.93;;;;;;;;;;5049983;28;20036;-78
2022/01/17 10:01:48;;;;;;;20.88;7.35;;;;;;;;;;5051653;28;21009;-78
2022/01/17 10:04:16;;;;;;;20.45;8.05;;;;;;;;;;5052541;28;20028;-78
2022/01/17 10:06:43;;;;;;;20.70;7.00;;;;;;;;;;5050967;28;20331;-78
2022/01/17 10:09:24;;;;;;;17.98;8.23;;;;;;;;;;5049006;28;20038;-78
2022/01/17 10:12:13;;;;;;;15.77;5.82;;;;;;;;;;5049912;28;20028;-78
2022/01/17 10:14:40;;;;;;;16.13;5.28;;;;;;;;;;5047169;28;20033;-78
2022/01/17 10:17:08;;;;;;;16.50;6.40;;;;;;;;;;5051468;28;20025;-78
2022/01/17 10:19:34;;;;;;;15.55;8.18;;;;;;;;;;5052619;28;20025;-78
2022/01/17 10:22:02;;;;;;;13.02;6.22;;;;;;;;;;5049576;28;20096;-77
2022/01/17 10:35:09;;;;;;;11.65;5.60;;;;;;;;;;5052755;28;20094;-77
2022/01/17 10:37:35;;;;;;;18.48;6.93;;;;;;;;;;5052565;28;20663;-78
2022/01/17 10:40:03;;;;;;;19.25;6.00;;;;;;;;;;5052176;28;20017;-77
2022/01/17 10:42:41;;;;;;;13.05;5.45;;;;;;;;;;5052622;28;20040;-79
2022/01/17 10:45:15;;;;;;;11.65;4.90;;;;;;;;;;5051701;28;20053;-78
2022/01/17 10:47:43;;;;;;;14.05;5.35;;;;;;;;;;5052377;28;20495;-78
2022/01/17 10:50:10;;;;;;;12.82;5.35;;;;;;;;;;5055064;28;20042;-78
2022/01/17 10:52:42;;;;;;;16.65;6.80;;;;;;;;;;5060631;28;20108;-78
2022/01/17 10:55:16;;;;;;;12.38;4.90;;;;;;;;;;5053747;28;20043;-78
2022/01/17 10:57:43;;;;;;;14.18;5.80;;;;;;;;;;5057397;28;20067;-79
2022/01/17 11:00:11;;;;;;;14.02;4.63;;;;;;;;;;5053165;28;20047;-78
2022/01/17 11:02:38;;;;;;;13.32;6.63;;;;;;;;;;5053886;28;21593;-78
2022/01/17 11:05:06;;;;;;;16.50;6.00;;;;;;;;;;5055036;28;20051;-78
2022/01/17 11:07:38;;;;;;;15.18;5.53;;;;;;;;;;5054331;28;20028;-78
2022/01/17 11:10:07;;;;;;;10.00;4.82;;;;;;;;;;5059159;28;20041;-78
2022/01/17 11:12:34;;;;;;;18.67;6.57;;;;;;;;;;5073648;28;20028;-77
2022/01/17 11:15:01;;;;;;;14.80;6.10;;;;;;;;;;5069204;28;20174;-78
2022/01/17 11:17:37;;;;;;;14.38;6.53;;;;;;;;;;5074179;28;20033;-79
2022/01/17 11:20:08;;;;;;;14.05;6.05;;;;;;;;;;5074755;28;20025;-78
2022/01/17 11:22:36;;;;;;;17.50;6.63;;;;;;;;;;5063896;28;20036;-78
2022/01/17 11:25:03;;;;;;;16.05;6.70;;;;;;;;;;5072298;28;20032;-79
2022/01/17 11:27:29;;;;;;;13.77;4.80;;;;;;;;;;5072803;28;20024;-78
2022/01/17 11:29:55;;;;;;;13.32;5.68;;;;;;;;;;5060044;28;20037;-77
2022/01/17 11:32:22;;;;;;;16.95;5.88;;;;;;;;;;5057561;28;20044;-78
2022/01/17 11:34:49;;;;;;;14.55;6.70;;;;;;;;;;5059827;28;20088;-78
2022/01/17 11:37:15;;;;;;;15.43;6.38;;;;;;;;;;5056875;28;20029;-79
2022/01/17 11:39:45;;;;;;;14.95;6.65;;;;;;;;;;5053588;28;20036;-78
2022/01/17 11:42:30;;;;;;;12.63;5.78;;;;;;;;;;5060024;28;20504;-78
2022/01/17 11:44:56;;;;;;;15.38;7.88;;;;;;;;;;5056372;28;20159;-78
2022/01/17 11:47:42;;;;;;;11.73;4.78;;;;;;;;;;5052681;28;20124;-78
2022/01/17 11:50:26;;;;;;;14.82;5.57;;;;;;;;;;5053447;28;20523;-78
2022/01/17 11:52:52;;;;;;;12.27;6.05;;;;;;;;;;5054201;28;20031;-78
2022/01/17 11:55:37;;;;;;;12.25;5.30;;;;;;;;;;5057500;28;20029;-78
2022/01/17 11:58:33;;;;;;;8.45;5.10;;;;;;;;;;5064404;28;20174;-79
2022/01/17 12:00:59;;;;;;;9.60;4.57;;;;;;;;;;5042847;28;20045;-78
2022/01/17 12:03:32;;;;;;;17.65;4.82;;;;;;;;;;5047556;28;20067;-78
2022/01/17 12:06:02;;;;;;;75.80;31.02;;;;;;;;;;5050698;28;20039;-78
2022/01/17 12:08:29;;;;;;;16.88;8.50;;;;;;;;;;5052144;28;20030;-78
2022/01/17 12:11:03;;;;;;;16.45;6.55;;;;;;;;;;5061844;28;20040;-77
2022/01/17 12:13:35;;;;;;;16.77;6.75;;;;;;;;;;5072482;28;20036;-78
2022/01/17 12:16:17;;;;;;;16.55;6.25;;;;;;;;;;5051447;28;20041;-78
2022/01/17 12:18:45;;;;;;;14.02;6.47;;;;;;;;;;5051625;28;20037;-76
2022/01/17 12:21:17;;;;;;;17.00;6.57;;;;;;;;;;5053322;28;20706;-77
2022/01/17 12:23:43;;;;;;;10.00;4.43;;;;;;;;;;5048210;28;20464;-79
2022/01/17 12:26:28;;;;;;;15.52;6.20;;;;;;;;;;5068103;28;20051;-79
2022/01/17 12:28:55;;;;;;;15.40;5.22;;;;;;;;;;5066274;28;20028;-78
2022/01/17 12:31:37;;;;;;;8.80;4.55;;;;;;;;;;5057666;28;20025;-78
2022/01/17 12:34:17;;;;;;;18.07;6.97;;;;;;;;;;5052260;28;20497;-79
2022/01/17 12:36:46;;;;;;;15.93;4.55;;;;;;;;;;5049109;28;20037;-78
2022/01/17 12:39:22;;;;;;;18.30;5.75;;;;;;;;;;5036478;28;21469;-76
2022/01/17 12:41:53;;;;;;;12.40;5.85;;;;;;;;;;5043302;28;20508;-76
2022/01/17 12:44:22;;;;;;;21.42;6.45;;;;;;;;;;5048172;28;20518;-77
2022/01/17 12:46:48;;;;;;;26.23;9.13;;;;;;;;;;5048359;28;22113;-77
2022/01/17 12:49:16;;;;;;;14.90;6.22;;;;;;;;;;5043973;28;22060;-78
2022/01/17 12:51:45;;;;;;;13.38;5.00;;;;;;;;;;5052442;28;20048;-78
2022/01/17 12:54:13;;;;;;;11.77;5.97;;;;;;;;;;5039589;28;20193;-78
2022/01/17 12:56:43;;;;;;;12.27;5.65;;;;;;;;;;5051723;28;20044;-78
2022/01/17 12:59:09;;;;;;;11.90;6.18;;;;;;;;;;5048014;28;20032;-77
2022/01/17 13:01:35;;;;;;;20.70;7.72;;;;;;;;;;5052221;28;20033;-77
2022/01/17 13:04:04;;;;;;;14.25;6.18;;;;;;;;;;5051314;28;20048;-78
2022/01/17 13:06:31;;;;;;;15.32;5.75;;;;;;;;;;5053485;28;20078;-78
2022/01/17 13:08:59;;;;;;;10.80;4.75;;;;;;;;;;5047891;28;20024;-78
2022/01/17 13:11:26;;;;;;;11.32;5.18;;;;;;;;;;5048401;28;21871;-78
2022/01/17 13:14:01;;;;;;;10.88;5.45;;;;;;;;;;5049395;28;20037;-78
2022/01/17 13:16:27;;;;;;;10.52;4.25;;;;;;;;;;5051980;28;20373;-79
2022/01/17 13:19:03;;;;;;;10.98;4.75;;;4.60;99.90;;;;;;5057320;28;20618;-80
2022/01/17 13:21:29;;;;;;;15.00;6.30;;;;;;;;;;5057229;28;20036;-78
2022/01/17 13:24:00;;;;;;;14.02;5.97;;;;;;;;;;5051802;28;20028;-79
2022/01/17 13:26:29;;;;;;;15.82;6.38;;;;;;;;;;5054189;28;20043;-79
2022/01/17 13:28:55;;;;;;;12.70;5.55;;;;;;;;;;5047348;28;20037;-78
2022/01/17 13:31:23;;;;;;;8.18;3.40;;;;;;;;;;5055014;28;20096;-79
2022/01/17 13:33:49;;;;;;;10.98;5.15;;;;;;;;;;5054927;28;20021;-78
2022/01/17 13:36:28;;;;;;;12.35;5.45;;;;;;;;;;5055556;28;20029;-78
2022/01/17 13:39:00;;;;;;;10.30;4.90;;;;;;;;;;5056104;28;20035;-79
2022/01/17 13:41:27;;;;;;;11.68;5.10;;;;;;;;;;5055113;28;20097;-79
2022/01/17 13:43:53;;;;;;;16.83;4.90;;;;;;;;;;5056578;28;20072;-78
2022/01/17 13:46:19;;;;;;;15.65;4.95;;;;;;;;;;5059164;28;20039;-78
2022/01/17 13:48:46;;;;;;;14.48;5.25;;;;;;;;;;5066446;28;20047;-79
2022/01/17 13:51:12;;;;;;;16.60;5.80;;;;;;;;;;5066366;28;20036;-79
2022/01/17 13:53:38;;;;;;;12.55;4.70;;;;;;;;;;5058941;28;20081;-79
2022/01/17 13:56:05;;;;;;;11.68;5.07;;;;;;;;;;5053159;28;20501;-78
2022/01/17 13:58:32;;;;;;;14.43;4.93;;;;;;;;;;5046990;28;20048;-79
2022/01/17 14:00:58;;;;;;;14.15;4.80;;;;;;;;;;5048446;28;20495;-78
2022/01/17 14:03:28;;;;;;;10.82;5.18;;;;;;;;;;5049053;28;20105;-78
2022/01/17 14:05:55;;;;;;;20.35;10.32;;;;;;;;;;5050646;28;20126;-78
2022/01/17 14:08:23;;;;;;;29.83;10.95;;;;;;;;;;5044999;28;20033;-78
2022/01/17 14:11:00;;;;;;;15.55;6.30;;;;;;;;;;5047457;28;20036;-79
2022/01/17 14:13:27;;;;;;;17.02;5.72;;;;;;;;;;5046126;28;20105;-79
2022/01/17 14:15:54;;;;;;;12.40;5.75;;;;;;;;;;5046950;28;20129;-79
2022/01/17 14:18:20;;;;;;;12.88;5.88;;;;;;;;;;5048205;28;20067;-79
2022/01/17 14:20:50;;;;;;;9.90;4.20;;;;;;;;;;5043451;28;20492;-79
2022/01/17 14:23:26;;;;;;;14.27;5.38;;;;;;;;;;5044518;28;20060;-79
2022/01/17 14:25:52;;;;;;;17.25;6.00;;;;;;;;;;5043342;28;20051;-79
2022/01/17 14:28:19;;;;;;;14.77;6.40;;;;;;;;;;5045761;28;20605;-78
2022/01/17 14:30:47;;;;;;;11.20;4.65;;;;;;;;;;5040907;28;20087;-79
2022/01/17 14:33:17;;;;;;;10.35;5.07;;;;;;;;;;5046589;28;20434;-79
2022/01/17 14:36:02;;;;;;;8.63;4.53;;;;;;;;;;5046719;28;20373;-79
2022/01/17 14:38:28;;;;;;;10.68;4.88;;;;;;;;;;5045959;28;20033;-78
2022/01/17 14:40:54;;;;;;;15.52;5.07;;;;;;;;;;5047871;28;20036;-79
2022/01/17 14:43:21;;;;;;;10.07;5.15;;;;;;;;;;5046444;28;20459;-79
2022/01/17 14:45:49;;;;;;;12.60;4.70;;;;;;;;;;5044205;28;20052;-78
2022/01/17 14:48:15;;;;;;;10.45;5.05;;;;;;;;;;5049100;28;20035;-79
2022/01/17 14:50:41;;;;;;;15.90;6.25;;;;;;;;;;5046688;28;20036;-79
2022/01/17 14:53:15;;;;;;;9.02;4.28;;;;;;;;;;5043567;28;20060;-79
2022/01/17 14:59:27;;;;;;;10.55;5.43;;;;;;;;;;5045610;28;20032;-80
2022/01/17 15:01:22;;;;;;;7.78;5.10;;;;;;;;;;5043748;28;20056;-79
2022/01/17 15:03:53;;;;;;;13.32;4.45;;;;;;;;;;5047052;28;20933;-79
2022/01/17 15:06:19;;;;;;;15.70;6.47;;;;;;;;;;5047687;28;20096;-79